createdAt,value
2018-10-12T00:01:24.650Z,99.90
2018-10-12T00:03:52.356Z,99.90
2018-10-12T00:06:19.976Z,99.90
2018-10-12T00:08:47.651Z,99.90
2018-10-12T00:11:15.247Z,99.90
2018-10-12T00:13:42.944Z,99.90
2018-10-12T00:16:10.576Z,99.90
2018-10-12T00:18:38.271Z,99.90
2018-10-12T00:21:05.950Z,99.90
2018-10-12T00:23:33.645Z,99.90
2018-10-12T00:26:01.418Z,99.90
2018-10-12T00:28:29.119Z,99.90
2018-10-12T00:30:56.747Z,99.90
2018-10-12T00:33:24.359Z,99.90
2018-10-12T00:35:52.057Z,99.90
2018-10-12T00:38:19.667Z,99.90
2018-10-12T00:40:47.314Z,99.90
2018-10-12T00:43:14.966Z,99.90
2018-10-12T00:45:42.736Z,99.90
2018-10-12T00:48:10.374Z,99.90
2018-10-12T00:50:38.058Z,99.90
2018-10-12T00:53:05.667Z,99.90
2018-10-12T00:55:34.104Z,99.90
2018-10-12T00:58:01.784Z,99.90
2018-10-12T01:00:29.421Z,99.90
2018-10-12T01:02:57.619Z,99.90
2018-10-12T01:05:25.442Z,99.90
2018-10-12T01:07:53.117Z,99.90
2018-10-12T01:10:23.227Z,99.90
2018-10-12T01:12:50.826Z,99.90
2018-10-12T01:15:18.464Z,99.90
2018-10-12T01:17:49.295Z,99.90
2018-10-12T01:20:17.064Z,99.90
2018-10-12T01:22:44.544Z,99.90
2018-10-12T01:25:11.956Z,99.90
2018-10-12T01:27:39.472Z,99.90
2018-10-12T01:30:06.943Z,99.90
2018-10-12T01:32:45.537Z,99.90
2018-10-12T01:35:12.949Z,99.90
2018-10-12T01:37:40.421Z,99.90
2018-10-12T01:40:07.855Z,99.90
2018-10-12T01:42:35.295Z,99.90
2018-10-12T01:45:02.724Z,99.90
2018-10-12T01:47:30.153Z,99.90
2018-10-12T01:49:57.568Z,99.90
2018-10-12T01:52:25.028Z,99.90
2018-10-12T01:54:52.458Z,99.90
2018-10-12T01:57:19.898Z,99.90
2018-10-12T01:59:47.313Z,99.90
2018-10-12T02:02:14.744Z,99.90
2018-10-12T02:04:42.165Z,99.90
2018-10-12T02:07:09.617Z,99.90
2018-10-12T02:09:42.392Z,99.90
2018-10-12T02:12:09.821Z,99.90
2018-10-12T02:14:37.284Z,99.90
2018-10-12T02:17:04.789Z,99.90
2018-10-12T02:19:32.197Z,99.90
2018-10-12T02:21:59.633Z,99.90
2018-10-12T02:24:27.041Z,99.90
2018-10-12T02:26:54.485Z,99.90
2018-10-12T02:29:21.906Z,99.90
2018-10-12T02:31:49.343Z,99.90
2018-10-12T02:34:16.792Z,99.90
2018-10-12T02:36:44.233Z,99.90
2018-10-12T02:39:13.230Z,99.90
2018-10-12T02:41:40.665Z,99.90
2018-10-12T02:44:08.204Z,99.90
2018-10-12T02:46:35.965Z,99.90
2018-10-12T02:49:03.398Z,99.90
2018-10-12T02:51:30.903Z,99.90
2018-10-12T02:53:58.331Z,99.90
2018-10-12T02:56:25.764Z,99.90
2018-10-12T02:58:53.436Z,99.90
2018-10-12T03:01:21.621Z,99.90
2018-10-12T03:03:49.370Z,99.90
2018-10-12T03:06:16.931Z,99.90
2018-10-12T03:08:44.544Z,99.90
2018-10-12T03:11:11.960Z,99.90
2018-10-12T03:13:39.726Z,99.90
2018-10-12T03:16:09.397Z,99.90
2018-10-12T03:18:37.761Z,99.90
2018-10-12T03:21:06.225Z,99.90
2018-10-12T03:23:34.022Z,99.90
2018-10-12T03:26:03.468Z,99.90
2018-10-12T03:28:32.454Z,99.90
2018-10-12T03:31:00.421Z,99.90
2018-10-12T03:33:28.484Z,99.90
2018-10-12T03:35:56.176Z,99.90
2018-10-12T03:38:23.617Z,99.90
2018-10-12T03:40:51.048Z,99.90
2018-10-12T03:43:18.506Z,99.90
2018-10-12T03:45:45.916Z,99.90
2018-10-12T03:48:13.538Z,99.90
2018-10-12T03:50:40.969Z,99.90
2018-10-12T03:53:09.069Z,99.90
2018-10-12T03:55:36.484Z,99.90
2018-10-12T03:58:03.900Z,99.90
2018-10-12T04:00:31.343Z,99.90
2018-10-12T04:02:58.757Z,99.90
2018-10-12T04:05:27.325Z,99.90
2018-10-12T04:07:54.778Z,99.90
2018-10-12T04:10:33.633Z,99.90
2018-10-12T04:13:03.080Z,99.90
2018-10-12T04:15:30.520Z,99.90
2018-10-12T04:17:58.008Z,99.90
2018-10-12T04:20:30.255Z,99.90
2018-10-12T04:22:57.726Z,99.90
2018-10-12T04:25:25.147Z,99.90
2018-10-12T04:27:52.606Z,99.90
2018-10-12T04:30:20.069Z,99.90
2018-10-12T04:32:48.569Z,99.90
2018-10-12T04:35:15.994Z,99.90
2018-10-12T04:37:43.429Z,99.90
2018-10-12T04:40:32.809Z,99.90
2018-10-12T04:43:00.301Z,99.90
2018-10-12T04:45:31.380Z,99.90
2018-10-12T04:48:01.132Z,99.90
2018-10-12T04:50:29.193Z,99.90
2018-10-12T04:52:56.796Z,99.90
2018-10-12T04:55:24.495Z,99.90
2018-10-12T04:57:52.118Z,99.90
2018-10-12T05:00:19.861Z,99.90
2018-10-12T05:02:47.540Z,99.90
2018-10-12T05:05:15.292Z,99.90
2018-10-12T05:07:43.226Z,99.90
2018-10-12T05:10:13.538Z,99.90
2018-10-12T05:12:42.560Z,99.90
2018-10-12T05:15:10.222Z,99.90
2018-10-12T05:17:38.063Z,99.90
2018-10-12T05:20:05.778Z,99.90
2018-10-12T05:22:33.556Z,99.90
2018-10-12T05:25:01.279Z,99.90
2018-10-12T05:27:33.085Z,99.90
2018-10-12T05:30:01.144Z,99.90
2018-10-12T05:32:28.979Z,99.90
2018-10-12T05:34:57.049Z,99.90
2018-10-12T05:37:30.326Z,99.90
2018-10-12T05:39:58.209Z,99.90
2018-10-12T05:42:31.440Z,99.90
2018-10-12T05:44:59.625Z,99.90
2018-10-12T05:47:29.899Z,99.90
2018-10-12T05:50:01.019Z,99.90
2018-10-12T05:52:29.565Z,99.90
2018-10-12T05:54:58.400Z,99.90
2018-10-12T05:57:29.463Z,99.90
2018-10-12T05:59:57.624Z,99.90
2018-10-12T06:02:25.487Z,99.90
2018-10-12T06:04:53.583Z,99.90
2018-10-12T06:07:23.608Z,99.90
2018-10-12T06:09:51.419Z,99.90
2018-10-12T06:12:18.942Z,99.90
2018-10-12T06:14:46.645Z,99.90
2018-10-12T06:17:14.769Z,99.90
2018-10-12T06:19:44.102Z,99.90
2018-10-12T06:22:12.454Z,99.90
2018-10-12T06:24:40.800Z,99.90
2018-10-12T06:27:09.912Z,99.90
2018-10-12T06:29:38.247Z,99.90
2018-10-12T06:32:09.423Z,99.90
2018-10-12T06:34:40.119Z,99.90
2018-10-12T06:37:09.922Z,99.90
2018-10-12T06:39:42.951Z,99.90
2018-10-12T06:42:10.752Z,99.90
2018-10-12T06:44:38.494Z,99.90
2018-10-12T07:03:58.512Z,99.90
2018-10-12T07:06:26.369Z,99.90
2018-10-12T07:08:55.138Z,99.90
2018-10-12T07:11:22.950Z,99.90
2018-10-12T07:13:52.713Z,99.90
2018-10-12T07:16:21.880Z,99.90
2018-10-12T07:18:50.119Z,99.90
2018-10-12T07:21:19.935Z,99.90
2018-10-12T07:23:47.720Z,99.90
2018-10-12T07:26:15.380Z,99.90
2018-10-12T07:28:44.159Z,99.90
2018-10-12T07:31:11.952Z,99.90
2018-10-12T07:33:39.961Z,99.70
2018-10-12T07:36:13.557Z,99.20
2018-10-12T07:38:43.278Z,98.70
2018-10-12T07:41:11.119Z,99.10
2018-10-12T07:43:38.881Z,98.40
2018-10-12T07:46:06.686Z,98.40
2018-10-12T07:48:34.442Z,98.30
2018-10-12T07:51:04.275Z,98.00
2018-10-12T07:53:31.927Z,97.80
2018-10-12T07:55:59.694Z,97.60
2018-10-12T07:58:28.677Z,97.20
2018-10-12T08:00:56.226Z,97.10
2018-10-12T08:06:15.423Z,96.70
2018-10-12T08:08:43.114Z,95.80
2018-10-12T08:11:10.807Z,95.50
2018-10-12T08:13:40.797Z,95.30
2018-10-12T08:16:08.432Z,94.90
2018-10-12T08:18:42.866Z,94.30
2018-10-12T08:21:10.503Z,94.20
2018-10-12T08:23:43.799Z,93.80
2018-10-12T08:26:11.555Z,93.60
2018-10-12T08:28:39.334Z,93.30
2018-10-12T08:31:19.140Z,92.90
2018-10-12T08:33:46.817Z,92.80
2018-10-12T08:36:14.582Z,92.80
2018-10-12T08:38:42.239Z,92.90
2018-10-12T08:41:10.812Z,92.70
2018-10-12T08:43:38.598Z,92.40
2018-10-12T08:48:42.488Z,92.20
2018-10-12T08:51:10.625Z,92.10
2018-10-12T08:53:38.452Z,92.20
2018-10-12T08:56:06.285Z,92.30
2018-10-12T08:58:34.506Z,92.40
2018-10-12T09:01:03.625Z,91.90
2018-10-12T09:03:31.370Z,92.70
2018-10-12T09:06:05.237Z,92.00
2018-10-12T09:08:37.242Z,92.20
2018-10-12T09:11:04.999Z,91.90
2018-10-12T09:13:32.915Z,91.70
2018-10-12T09:16:01.295Z,91.90
2018-10-12T09:18:29.008Z,91.90
2018-10-12T09:20:56.778Z,92.40
2018-10-12T09:23:24.526Z,91.90
2018-10-12T09:25:54.421Z,91.60
2018-10-12T09:28:22.056Z,91.60
2018-10-12T09:30:49.706Z,91.40
2018-10-12T09:33:17.323Z,90.60
2018-10-12T09:35:45.188Z,90.40
2018-10-12T09:38:13.017Z,90.30
2018-10-12T09:40:40.745Z,89.40
2018-10-12T09:43:10.556Z,90.00
2018-10-12T09:45:38.322Z,89.10
2018-10-12T09:48:06.789Z,88.60
2018-10-12T09:50:34.460Z,87.00
2018-10-12T09:53:02.253Z,87.10
2018-10-12T09:55:31.109Z,86.00
2018-10-12T09:57:58.808Z,86.00
2018-10-12T10:00:32.142Z,85.10
2018-10-12T10:03:06.278Z,84.90
2018-10-12T10:05:34.449Z,83.60
2018-10-12T10:08:02.514Z,82.90
2018-10-12T10:10:32.434Z,81.80
2018-10-12T10:13:00.170Z,82.10
2018-10-12T10:15:30.038Z,82.10
2018-10-12T10:17:57.706Z,82.30
2018-10-12T10:20:25.358Z,82.70
2018-10-12T10:22:57.347Z,81.90
2018-10-12T10:25:24.962Z,80.90
2018-10-12T10:27:52.691Z,80.20
2018-10-12T10:30:21.451Z,79.60
2018-10-12T10:32:49.188Z,78.90
2018-10-12T10:35:16.775Z,78.80
2018-10-12T10:37:44.379Z,78.20
2018-10-12T10:40:14.043Z,78.10
2018-10-12T10:42:41.669Z,78.00
2018-10-12T10:45:09.284Z,78.30
2018-10-12T10:47:36.968Z,77.50
2018-10-12T10:50:04.698Z,77.20
2018-10-12T10:52:32.370Z,75.70
2018-10-12T10:55:05.912Z,76.10
2018-10-12T10:57:33.661Z,75.50
2018-10-12T11:00:01.366Z,76.90
2018-10-12T11:02:28.960Z,76.40
2018-10-12T11:04:56.571Z,76.70
2018-10-12T11:07:24.306Z,75.60
2018-10-12T11:09:58.407Z,75.40
2018-10-12T11:12:26.104Z,75.40
2018-10-12T11:14:53.827Z,74.70
2018-10-12T11:17:21.404Z,73.60
2018-10-12T11:19:52.068Z,72.20
2018-10-12T11:22:19.817Z,73.50
2018-10-12T11:24:47.495Z,72.10
2018-10-12T11:27:15.075Z,73.30
2018-10-12T11:29:43.181Z,73.40
2018-10-12T11:32:10.931Z,74.10
2018-10-12T11:34:38.538Z,73.10
2018-10-12T11:37:07.086Z,72.20
2018-10-12T11:39:34.698Z,71.50
2018-10-12T11:42:02.472Z,71.10
2018-10-12T11:44:30.155Z,70.80
2018-10-12T11:46:58.826Z,71.90
2018-10-12T11:49:26.485Z,71.60
2018-10-12T11:51:58.725Z,70.80
2018-10-12T11:54:26.404Z,70.90
2018-10-12T11:56:54.591Z,70.90
2018-10-12T11:59:22.306Z,70.20
2018-10-12T12:01:49.970Z,69.50
2018-10-12T12:04:17.730Z,70.70
2018-10-12T12:06:45.343Z,69.70
2018-10-12T12:09:13.087Z,68.70
2018-10-12T12:11:41.228Z,67.20
2018-10-12T12:14:09.033Z,67.40
2018-10-12T12:16:36.774Z,67.60
2018-10-12T12:19:04.630Z,68.00
2018-10-12T12:21:32.477Z,67.40
2018-10-12T12:24:00.286Z,67.60
2018-10-12T12:26:35.931Z,67.50
2018-10-12T12:29:03.800Z,66.70
2018-10-12T12:31:31.600Z,66.10
2018-10-12T12:33:59.246Z,65.80
2018-10-12T12:36:26.967Z,64.10
2018-10-12T12:38:59.334Z,65.00
2018-10-12T12:41:27.085Z,64.40
2018-10-12T12:43:55.082Z,63.80
2018-10-12T12:46:23.051Z,64.00
2018-10-12T12:48:56.023Z,63.50
2018-10-12T12:51:23.625Z,65.50
2018-10-12T12:53:51.524Z,64.30
2018-10-12T12:56:19.326Z,64.60
2018-10-12T12:58:47.100Z,65.20
2018-10-12T13:01:14.936Z,65.60
2018-10-12T13:03:43.313Z,64.70
2018-10-12T13:06:11.310Z,65.70
2018-10-12T13:08:39.279Z,65.70
2018-10-12T13:11:07.269Z,65.10
2018-10-12T13:13:35.476Z,65.90
2018-10-12T13:16:03.424Z,66.00
2018-10-12T13:18:31.081Z,65.50
2018-10-12T13:20:58.767Z,66.10
2018-10-12T13:23:29.633Z,67.80
2018-10-12T13:25:57.381Z,66.10
2018-10-12T13:28:24.938Z,66.50
2018-10-12T13:30:58.693Z,66.80
2018-10-12T13:33:26.262Z,66.40
2018-10-12T13:35:54.927Z,66.30
2018-10-12T13:38:22.612Z,66.30
2018-10-12T13:40:52.366Z,66.00
2018-10-12T13:43:20.191Z,66.00
2018-10-12T13:45:47.848Z,66.70
2018-10-12T13:48:15.463Z,68.10
2018-10-12T13:50:43.092Z,67.30
2018-10-12T13:53:10.677Z,67.20
2018-10-12T13:55:38.307Z,66.20
2018-10-12T13:58:05.909Z,65.00
2018-10-12T14:00:33.530Z,64.70
2018-10-12T14:03:01.149Z,66.10
2018-10-12T14:05:28.708Z,66.30
2018-10-12T14:07:56.428Z,62.60
2018-10-12T14:10:24.195Z,63.00
2018-10-12T15:21:56.997Z,69.90
2018-10-12T15:25:05.913Z,70.20
2018-10-12T15:27:33.771Z,71.00
2018-10-12T15:30:02.568Z,71.20
2018-10-12T15:32:30.572Z,70.40
2018-10-12T15:34:58.540Z,69.70
2018-10-12T15:37:26.499Z,70.10
2018-10-12T15:39:54.439Z,70.00
2018-10-12T15:42:22.326Z,70.00
2018-10-12T15:44:54.771Z,71.10
2018-10-12T15:47:23.675Z,70.00
2018-10-12T15:49:51.619Z,70.00
2018-10-12T15:52:19.268Z,70.50
2018-10-12T15:54:50.629Z,70.70
2018-10-12T15:57:20.590Z,71.40
2018-10-12T15:59:49.724Z,71.60
2018-10-12T16:02:17.725Z,71.30
2018-10-12T16:04:45.992Z,71.80
2018-10-12T16:07:14.614Z,72.30
2018-10-12T16:09:43.828Z,73.00
2018-10-12T16:12:11.550Z,73.50
2018-10-12T16:14:39.941Z,74.10
2018-10-12T16:17:07.955Z,74.00
2018-10-12T16:20:05.034Z,75.20
2018-10-12T16:25:34.871Z,78.40
2018-10-12T16:28:02.962Z,80.00
2018-10-12T16:30:32.301Z,80.40
2018-10-12T16:33:00.482Z,81.10
2018-10-12T16:35:35.178Z,81.90
2018-10-12T16:38:04.369Z,81.80
2018-10-12T16:40:33.635Z,82.40
2018-10-12T16:43:04.187Z,83.50
2018-10-12T16:45:33.130Z,83.90
2018-10-12T16:48:22.895Z,83.70
2018-10-12T16:50:50.939Z,85.00
2018-10-12T16:53:21.076Z,86.20
2018-10-12T16:56:56.764Z,87.70
2018-10-12T17:01:39.013Z,87.80
2018-10-12T17:04:06.869Z,88.70
2018-10-12T17:06:34.790Z,90.30
2018-10-12T18:13:17.938Z,91.30
2018-10-12T18:15:52.396Z,98.30
2018-10-12T18:18:24.268Z,98.00
2018-10-12T18:23:37.137Z,97.90
2018-10-12T18:26:05.160Z,97.90
2018-10-12T18:28:41.447Z,98.20
2018-10-12T18:31:09.554Z,98.50
2018-10-12T18:33:37.721Z,99.00
2018-10-12T18:36:07.750Z,99.30
2018-10-12T18:38:38.415Z,99.40
2018-10-12T18:41:06.257Z,99.90
2018-10-12T18:43:34.291Z,99.70
2018-10-12T18:46:02.235Z,99.40
2018-10-12T18:48:30.105Z,99.50
2018-10-12T18:50:59.776Z,99.50
2018-10-12T18:53:28.739Z,99.90
2018-10-12T18:55:56.599Z,99.90
2018-10-12T18:58:24.435Z,99.90
2018-10-12T19:00:52.339Z,99.90
2018-10-12T19:03:20.149Z,99.90
2018-10-12T19:05:50.126Z,99.90
2018-10-12T19:08:17.983Z,99.90
2018-10-12T19:10:51.663Z,99.90
2018-10-12T19:13:19.608Z,99.90
2018-10-12T19:15:47.430Z,99.90
2018-10-12T19:18:15.630Z,99.90
2018-10-12T19:20:44.554Z,99.90
2018-10-12T20:39:35.469Z,99.90
